Wladyslaw Orkan — 9HA4539 — position and weather

sailwx.info

Track history (hours):
 
Tides and Currents Weather Stations Pressure Air Temp Water Temp Dewpoint Dewpoint Depression Visibility Wind Speed Wind Dir Waves Ship Positions

Wladyslaw Orkan

Last reported at 2017-Oct-17 22:00 UTC. Time now 2017-Oct-17 22:30 UTC.
Position N 51°43' E 002°21'.

Length 200 m; draft 7.6 m.

Type: Ship. MMSI: 248160000.

Date/timePositionNaut miles runAvg speedWind from/ knotsBaromVisibWave heightAir tempDewpointWater temp
2017-Oct-17 22:00N 51°43' E 002°21'814.2
2017-Oct-17 21:28N 51°49' E 002°29'714.8
2017-Oct-17 21:00N 51°54' E 002°37'815.2
2017-Oct-17 20:27N 52°00' E 002°45'2015.4
2017-Oct-17 19:10N 52°16' E 003°04'415.3
2017-Oct-17 18:53N 52°20' E 003°09'714.8
2017-Oct-17 18:25N 52°25' E 003°15'614.6
2017-Oct-17 18:00N 52°30' E 003°21'913.9
2017-Oct-17 17:21N 52°37' E 003°30'513.4
2017-Oct-17 17:00N 52°41' E 003°35'712.4
2017-Oct-17 16:27N 52°46' E 003°42'1311.6
2017-Oct-17 15:19N 52°56' E 003°57'2411.1
2017-Oct-17 13:06N 53°13' E 004°26'1911.6
2017-Oct-17 11:28N 53°31' E 004°36'611.7
2017-Oct-17 10:57N 53°37' E 004°39'12610.7
2017-Oct-16 23:10N 55°27' E 006°25'212.2
2017-Oct-16 23:00N 55°28' E 006°27'612.2
2017-Oct-16 22:30N 55°34' E 006°32'712.2
2017-Oct-16 21:58N 55°39' E 006°38'12212.6
2017-Oct-16 12:20N 57°20' E 008°41'2813.1
2017-Oct-16 10:14N 57°34' E 009°25'313.0
2017-Oct-16 10:00N 57°36' E 009°30'712.7
2017-Oct-16 09:26N 57°40' E 009°42'812.4
2017-Oct-16 08:49N 57°43' E 009°54'512.3
2017-Oct-16 08:27N 57°45' E 010°02'612.5
2017-Oct-16 07:58N 57°47' E 010°13'612.2
2017-Oct-16 07:30N 57°48' E 010°23'612.2
2017-Oct-16 07:00N 57°49' E 010°35'611.8
2017-Oct-16 06:30N 57°48' E 010°45'612.2
2017-Oct-16 05:59N 57°44' E 010°54'613.2
2017-Oct-16 05:30N 57°40' E 011°03'613.0
2017-Oct-16 05:00N 57°36' E 011°12'713.2
2017-Oct-16 04:30N 57°31' E 011°22'612.3
2017-Oct-16 04:00N 57°26' E 011°28'612.7
2017-Oct-16 03:30N 57°20' E 011°32'612.7
2017-Oct-16 03:00N 57°14' E 011°36'712.9
2017-Oct-16 02:30N 57°08' E 011°39'612.7
2017-Oct-16 01:59N 57°02' E 011°44'912.9
2017-Oct-16 01:17N 56°54' E 011°49'1313.1
2017-Oct-16 00:18N 56°41' E 011°56'2713.6
2017-Oct-15 22:19N 56°16' E 012°12'414.1
2017-Oct-15 22:00N 56°13' E 012°19'715.0
2017-Oct-15 21:30N 56°09' E 012°29'713.7
2017-Oct-15 21:00N 56°04' E 012°38'5 9.6
2017-Oct-15 20:30N 55°60' E 012°41'612.6
2017-Oct-15 20:00N 55°54' E 012°46'714.4
2017-Oct-15 19:30N 55°47' E 012°42'612.5
2017-Oct-15 19:01N 55°41' E 012°41'611.9
2017-Oct-15 18:30N 55°35' E 012°42'5 9.7
2017-Oct-15 18:00N 55°30' E 012°43'611.4
2017-Oct-15 17:31N 55°24' E 012°41'510.7
2017-Oct-15 17:00N 55°19' E 012°41'612.0
2017-Oct-15 16:30N 55°16' E 012°51'611.8
2017-Oct-15 16:00N 55°15' E 013°01'612.0
2017-Oct-15 15:30N 55°15' E 013°11'712.9
2017-Oct-15 14:59N 55°14' E 013°23'1613.2
2017-Oct-15 13:49N 55°14' E 013°50'413.1
2017-Oct-15 13:30N 55°14' E 013°57'712.9
2017-Oct-15 12:59N 55°13' E 014°09'712.6
2017-Oct-15 12:27N 55°15' E 014°20'613.6
2017-Oct-15 12:00N 55°20' E 014°26'713.5
2017-Oct-15 11:30N 55°25' E 014°34'612.7
2017-Oct-15 11:00N 55°27' E 014°44'713.0
2017-Oct-15 10:30N 55°26' E 014°55'713.2
2017-Oct-15 10:00N 55°23' E 015°06'713.3
2017-Oct-15 09:30N 55°22' E 015°18'713.1
2017-Oct-15 09:00N 55°21' E 015°29'613.0
2017-Oct-15 08:30N 55°20' E 015°40'613.0
2017-Oct-15 08:01N 55°19' E 015°52'713.0
2017-Oct-15 07:31N 55°18' E 016°03'713.3
2017-Oct-15 06:59N 55°16' E 016°15'613.0
2017-Oct-15 06:31N 55°15' E 016°26'713.0
2017-Oct-15 06:00N 55°14' E 016°37'712.7
2017-Oct-15 05:28N 55°13' E 016°49'612.5
2017-Oct-15 05:00N 55°11' E 016°59'612.4
2017-Oct-15 04:30N 55°10' E 017°09'812.4
2017-Oct-15 03:49N 55°09' E 017°24'1912.2
2017-Oct-15 02:14N 55°06' E 017°57'312.1
2017-Oct-15 02:00N 55°05' E 018°02'612.2
2017-Oct-15 01:30N 55°04' E 018°13'612.2
2017-Oct-15 01:01N 55°03' E 018°23'611.4
2017-Oct-15 00:31N 55°00' E 018°32'611.7
2017-Oct-15 00:01N 54°56' E 018°40'611.9
2017-Oct-14 23:30N 54°52' E 018°47'612.2
2017-Oct-14 23:01N 54°48' E 018°55'611.4
2017-Oct-14 22:30N 54°43' E 018°60'713.5
2017-Oct-14 22:00N 54°37' E 018°55'713.7
2017-Oct-14 21:30N 54°32' E 018°48'612.6
2017-Oct-14 21:00N 54°27' E 018°41'3 5.1
2017-Oct-14 20:30N 54°25' E 018°40'1 3.0
2017-Oct-14 20:00N 54°23' E 018°40'0 0.8
2017-Oct-14 19:26N 54°23' E 018°39'0 0.0
2017-Oct-14 18:59N 54°23' E 018°39'0 0.0
2017-Oct-14 18:29N 54°23' E 018°39'0 0.0
2017-Oct-14 17:56N 54°23' E 018°39'0 0.0
2017-Oct-14 17:28N 54°23' E 018°39'0 0.0
2017-Oct-14 16:58N 54°23' E 018°39'0 0.0
2017-Oct-14 16:25N 54°23' E 018°39'0 0.0
2017-Oct-14 15:58N 54°23' E 018°39'0 0.0
2017-Oct-14 15:31N 54°23' E 018°39'0 0.0
2017-Oct-14 15:00N 54°23' E 018°39'0 0.0
2017-Oct-14 14:30N 54°23' E 018°39'0 0.0
2017-Oct-14 14:00N 54°23' E 018°39'0 0.0
2017-Oct-14 13:30N 54°23' E 018°39'0 0.0
2017-Oct-14 12:59N 54°23' E 018°39'0 0.0
2017-Oct-14 12:26N 54°23' E 018°39'0 0.0
2017-Oct-14 11:59N 54°23' E 018°39'0 0.0
2017-Oct-14 11:29N 54°23' E 018°39'0 0.0
2017-Oct-14 10:59N 54°23' E 018°39'0 0.0
2017-Oct-14 10:28N 54°23' E 018°39'0 0.0
2017-Oct-14 09:58N 54°23' E 018°39'0 0.0
2017-Oct-14 09:25N 54°23' E 018°39'0 0.0
2017-Oct-14 08:58N 54°23' E 018°39'0 0.0
2017-Oct-14 08:27N 54°23' E 018°39'0 0.0
2017-Oct-14 08:00N 54°23' E 018°39'0 0.0
2017-Oct-14 07:30N 54°23' E 018°39'0 0.0
2017-Oct-14 07:00N 54°23' E 018°39'0 0.0
2017-Oct-14 06:30N 54°23' E 018°39'0 0.0
2017-Oct-14 05:59N 54°23' E 018°39'0 0.0
2017-Oct-14 05:29N 54°23' E 018°39'0 0.0
2017-Oct-14 04:56N 54°23' E 018°39'0 0.0
2017-Oct-14 04:29N 54°23' E 018°39'0 0.0
2017-Oct-14 03:59N 54°23' E 018°39'0 0.0
2017-Oct-14 03:28N 54°23' E 018°39'0 0.0
2017-Oct-14 02:58N 54°23' E 018°39'0 0.0
2017-Oct-14 02:28N 54°23' E 018°39'0 0.0
2017-Oct-14 01:58N 54°23' E 018°39'0 0.0
2017-Oct-14 01:30N 54°23' E 018°39'0 0.0
2017-Oct-14 01:00N 54°23' E 018°39'0 0.0
2017-Oct-14 00:30N 54°23' E 018°39'0 0.0
2017-Oct-14 00:00N 54°23' E 018°39'0 0.0
2017-Oct-13 23:30N 54°23' E 018°39'0 0.0
2017-Oct-13 22:59N 54°23' E 018°39'0 0.0
2017-Oct-13 22:29N 54°23' E 018°39'0 0.0
2017-Oct-13 21:59N 54°23' E 018°39'0 0.0
2017-Oct-13 21:29N 54°23' E 018°39'0 0.0
2017-Oct-13 20:59N 54°23' E 018°39'0 0.0
2017-Oct-13 20:28N 54°23' E 018°39'0 0.0
2017-Oct-13 19:58N 54°23' E 018°39'0 0.0
2017-Oct-13 19:28N 54°23' E 018°39'0 0.0
2017-Oct-13 18:58N 54°23' E 018°39'0 0.0
2017-Oct-13 18:30N 54°23' E 018°39'0 0.0
2017-Oct-13 17:57N 54°23' E 018°39'0 0.0
2017-Oct-13 17:30N 54°23' E 018°39'0 0.0
2017-Oct-13 17:00N 54°23' E 018°39'0 0.0
2017-Oct-13 16:30N 54°23' E 018°39'0 0.0
2017-Oct-13 15:59N 54°23' E 018°39'0 0.0
2017-Oct-13 15:29N 54°23' E 018°39'0 0.0
2017-Oct-13 14:59N 54°23' E 018°39'0 0.0
2017-Oct-13 14:26N 54°23' E 018°39'0 0.0
2017-Oct-13 13:55N 54°23' E 018°39'0 0.0
2017-Oct-13 13:28N 54°23' E 018°39'0 0.0
2017-Oct-13 12:58N 54°23' E 018°39'0 0.0
2017-Oct-13 12:28N 54°23' E 018°39'0 0.0
2017-Oct-13 11:58N 54°23' E 018°39'0 0.0
2017-Oct-13 11:30N 54°23' E 018°39'0 0.0
2017-Oct-13 11:00N 54°23' E 018°39'0 0.0
2017-Oct-13 10:30N 54°23' E 018°39'0 0.0
2017-Oct-13 10:00N 54°23' E 018°39'0 0.0
2017-Oct-13 09:30N 54°23' E 018°39'0 0.0
2017-Oct-13 08:59N 54°23' E 018°39'0 0.0
2017-Oct-13 08:29N 54°23' E 018°39'0 0.0
2017-Oct-13 07:59N 54°23' E 018°39'0 0.0
2017-Oct-13 07:29N 54°23' E 018°39'0 0.0
2017-Oct-13 06:58N 54°23' E 018°39'0 0.0
2017-Oct-13 06:28N 54°23' E 018°39'0 0.0
2017-Oct-13 05:55N 54°23' E 018°39'0 0.0
2017-Oct-13 05:28N 54°23' E 018°39'0 0.0
2017-Oct-13 04:58N 54°23' E 018°39'0 0.0
2017-Oct-13 04:27N 54°23' E 018°39'0 0.0
2017-Oct-13 04:00N 54°23' E 018°39'0 0.0
2017-Oct-13 03:30N 54°23' E 018°39'0 0.0
2017-Oct-13 02:57N 54°23' E 018°39'0 0.0
2017-Oct-13 02:30N 54°23' E 018°39'0 0.0
2017-Oct-13 01:59N 54°23' E 018°39'0 0.0
2017-Oct-13 01:29N 54°23' E 018°39'0 0.0
2017-Oct-13 00:59N 54°23' E 018°39'0 0.0
2017-Oct-13 00:29N 54°23' E 018°39'0 0.0
2017-Oct-12 23:58N 54°23' E 018°39'0 0.0
2017-Oct-12 23:28N 54°23' E 018°39'0 0.0
2017-Oct-12 22:58N 54°23' E 018°39'0 0.0
2017-Oct-12 22:28N 54°23' E 018°39'1 2.5
2017-Oct-12 22:00N 54°24' E 018°41'2 4.5
2017-Oct-12 21:30N 54°26' E 018°39'3 5.1
2017-Oct-12 21:00N 54°28' E 018°42'3 5.2
2017-Oct-12 20:30N 54°30' E 018°44'4 7.2
2017-Oct-12 20:00N 54°33' E 018°48'611.1
2017-Oct-12 19:30N 54°37' E 018°54'612.3
2017-Oct-12 19:00N 54°43' E 018°58'611.9
2017-Oct-12 18:30N 54°48' E 018°54'815.3
2017-Oct-12 18:00N 54°53' E 018°43'815.5
2017-Oct-12 17:30N 54°57' E 018°32'815.6
2017-Oct-12 17:00N 54°59' E 018°19'815.5
2017-Oct-12 16:30N 55°01' E 018°06'8815.0
2017-Oct-12 10:36N 55°15' E 015°33'214.6
2017-Oct-12 10:28N 55°15' E 015°29'714.6
2017-Oct-12 10:00N 55°16' E 015°18'714.9
2017-Oct-12 09:30N 55°18' E 015°05'714.9
2017-Oct-12 09:00N 55°21' E 014°53'714.4
2017-Oct-12 08:30N 55°24' E 014°42'714.4
2017-Oct-12 08:00N 55°19' E 014°33'714.7
2017-Oct-12 07:30N 55°13' E 014°25'713.7
2017-Oct-12 07:00N 55°10' E 014°14'1014.5
2017-Oct-12 06:21N 55°10' E 013°57'614.3
2017-Oct-12 05:57N 55°10' E 013°47'614.4
2017-Oct-12 05:30N 55°11' E 013°36'914.2
2017-Oct-12 04:51N 55°13' E 013°20'514.2
2017-Oct-12 04:30N 55°13' E 013°11'714.1
2017-Oct-12 04:00N 55°14' E 012°59'714.0
2017-Oct-12 03:30N 55°16' E 012°47'612.5
2017-Oct-12 03:00N 55°18' E 012°37'612.6
2017-Oct-12 02:30N 55°25' E 012°39'612.9
2017-Oct-12 02:00N 55°31' E 012°42'611.1
2017-Oct-12 01:30N 55°36' E 012°42'611.2
2017-Oct-12 01:00N 55°42' E 012°41'612.4
2017-Oct-12 00:30N 55°48' E 012°42'713.2
2017-Oct-12 00:00N 55°54' E 012°39'613.0
2017-Oct-11 23:30N 56°01' E 012°38'611.4
2017-Oct-11 23:00N 56°06' E 012°33'713.7
2017-Oct-11 22:30N 56°10' E 012°23'713.7
2017-Oct-11 22:00N 56°14' E 012°13'4612.8
2017-Oct-11 18:27N 56°57' E 011°44'713.3
2017-Oct-11 17:57N 57°03' E 011°40'613.2
2017-Oct-11 17:28N 57°09' E 011°36'613.0
2017-Oct-11 17:00N 57°15' E 011°32'20311.3
2017-Oct-10 22:59N 55°17' E 006°34'1413.5
2017-Oct-10 21:56N 55°03' E 006°34'612.6
2017-Oct-10 21:28N 54°58' E 006°38'612.6
2017-Oct-10 21:00N 54°53' E 006°44'612.7
2017-Oct-10 20:30N 54°48' E 006°50'5412.9
2017-Oct-10 16:20N 54°07' E 007°50'512.7
2017-Oct-10 15:58N 54°05' E 007°57'613.0
2017-Oct-10 15:30N 54°01' E 008°05'611.9
2017-Oct-10 15:00N 54°00' E 008°15'1211.7
2017-Oct-10 14:00N 53°58' E 008°35'510.8
2017-Oct-10 13:30N 53°54' E 008°41'510.3
2017-Oct-10 13:00N 53°51' E 008°48'510.2
2017-Oct-10 12:30N 53°51' E 008°56'611.5
2017-Oct-10 12:00N 53°53' E 009°05'4 8.5
2017-Oct-10 11:30N 53°53' E 009°13'713.5
2017-Oct-10 11:00N 53°49' E 009°22'714.8
2017-Oct-10 10:30N 53°43' E 009°29'713.6
2017-Oct-10 10:00N 53°37' E 009°34'612.8
2017-Oct-10 09:30N 53°34' E 009°43'611.8
2017-Oct-10 09:00N 53°33' E 009°53'4 7.3
2017-Oct-10 08:30N 53°32' E 009°59'0 0.4
2017-Oct-10 07:58N 53°32' E 009°59'0 0.0
2017-Oct-10 07:30N 53°32' E 009°59'0 0.0
2017-Oct-10 07:00N 53°32' E 009°59'0 0.0
2017-Oct-10 06:30N 53°32' E 009°59'0 0.0
2017-Oct-10 06:00N 53°32' E 009°59'0 0.0
2017-Oct-10 05:27N 53°32' E 009°59'0 0.0
2017-Oct-10 04:59N 53°32' E 009°59'0 0.0
2017-Oct-10 04:29N 53°32' E 009°59'0 0.0
2017-Oct-10 03:59N 53°32' E 009°59'0 0.0
2017-Oct-10 03:29N 53°32' E 009°59'0 0.0
2017-Oct-10 02:58N 53°32' E 009°59'0 0.0
2017-Oct-10 02:28N 53°32' E 009°59'0 0.0
2017-Oct-10 01:58N 53°32' E 009°59'0 0.0
2017-Oct-10 01:28N 53°32' E 009°59'0 0.0
2017-Oct-10 00:58N 53°32' E 009°59'0 0.0
2017-Oct-10 00:30N 53°32' E 009°59'0 0.0
2017-Oct-10 00:00N 53°32' E 009°59'0 0.0
2017-Oct-09 23:30N 53°32' E 009°59'0 0.0
2017-Oct-09 23:00N 53°32' E 009°59'0 0.0
2017-Oct-09 22:30N 53°32' E 009°59'0 0.0
2017-Oct-09 21:59N 53°32' E 009°59'0 0.0
2017-Oct-09 21:29N 53°32' E 009°59'0 0.0
2017-Oct-09 20:59N 53°32' E 009°59'0 0.0
2017-Oct-09 20:29N 53°32' E 009°59'0 0.0
2017-Oct-09 19:59N 53°32' E 009°59'0 0.0
2017-Oct-09 19:28N 53°32' E 009°59'0 0.0
2017-Oct-09 18:58N 53°32' E 009°59'0 0.0
2017-Oct-09 18:28N 53°32' E 009°59'0 0.0
2017-Oct-09 17:58N 53°32' E 009°59'0 0.0
2017-Oct-09 17:30N 53°32' E 009°59'0 0.0
2017-Oct-09 17:00N 53°32' E 009°59'0 0.0
2017-Oct-09 16:30N 53°32' E 009°59'0 0.0
2017-Oct-09 16:00N 53°32' E 009°59'0 0.0
2017-Oct-09 15:30N 53°32' E 009°59'0 0.0
2017-Oct-09 14:59N 53°32' E 009°59'0 0.0
2017-Oct-09 14:29N 53°32' E 009°59'0 0.0
2017-Oct-09 13:59N 53°32' E 009°59'0 0.0
2017-Oct-09 13:29N 53°32' E 009°59'0 0.0
2017-Oct-09 12:58N 53°32' E 009°59'0 0.0
2017-Oct-09 12:28N 53°32' E 009°59'0 0.0
2017-Oct-09 11:58N 53°32' E 009°59'0 0.0
2017-Oct-09 11:28N 53°32' E 009°59'0 0.0
2017-Oct-09 10:58N 53°32' E 009°59'0 0.0
2017-Oct-09 10:30N 53°32' E 009°59'0 0.0
2017-Oct-09 10:00N 53°32' E 009°59'0 0.0
2017-Oct-09 09:30N 53°32' E 009°59'0 0.0
2017-Oct-09 09:00N 53°32' E 009°59'0 0.0
2017-Oct-09 08:29N 53°32' E 009°59'0 0.0
2017-Oct-09 07:59N 53°32' E 009°59'0 0.0
2017-Oct-09 07:29N 53°32' E 009°59'0 0.0
2017-Oct-09 06:59N 53°32' E 009°59'0 0.0
2017-Oct-09 06:29N 53°32' E 009°59'0 0.0
2017-Oct-09 05:58N 53°32' E 009°59'0 0.0
2017-Oct-09 05:28N 53°32' E 009°59'0 0.0
2017-Oct-09 04:58N 53°32' E 009°59'0 0.0
2017-Oct-09 04:28N 53°32' E 009°59'0 0.0
2017-Oct-09 04:00N 53°32' E 009°59'0 0.0
2017-Oct-09 03:30N 53°32' E 009°59'0 0.0
2017-Oct-09 03:00N 53°32' E 009°59'0 0.0
2017-Oct-09 02:30N 53°32' E 009°59'0 0.0
2017-Oct-09 02:00N 53°32' E 009°59'0 0.0
2017-Oct-09 01:29N 53°32' E 009°59'0 0.0
2017-Oct-09 00:59N 53°32' E 009°59'0 0.0
2017-Oct-09 00:29N 53°32' E 009°59'0 0.0
2017-Oct-08 23:59N 53°32' E 009°59'0 0.0
2017-Oct-08 23:29N 53°32' E 009°59'0 0.0
2017-Oct-08 22:58N 53°32' E 009°59'0 0.0
2017-Oct-08 22:28N 53°32' E 009°59'0 0.0
2017-Oct-08 21:58N 53°32' E 009°59'0 0.0
2017-Oct-08 21:28N 53°32' E 009°59'0 0.0
2017-Oct-08 20:57N 53°32' E 009°59'0 0.0
2017-Oct-08 20:30N 53°32' E 009°59'0 0.0
2017-Oct-08 20:00N 53°32' E 009°59'0 0.0
2017-Oct-08 19:30N 53°32' E 009°59'2 3.1
2017-Oct-08 19:00N 53°33' E 009°57'2 3.8
2017-Oct-08 18:31N 53°31' E 009°57'2 3.3
2017-Oct-08 17:59N 53°29' E 009°59'0 0.0
2017-Oct-08 17:29N 53°29' E 009°59'0 0.0
2017-Oct-08 16:59N 53°29' E 009°59'0 0.0
2017-Oct-08 16:29N 53°29' E 009°59'1 1.3
2017-Oct-08 15:58N 53°30' E 009°59'1 1.4
2017-Oct-08 15:28N 53°29' E 009°59'0 0.0
2017-Oct-08 14:58N 53°29' E 009°59'0 0.0
2017-Oct-08 14:28N 53°29' E 009°59'0 0.0
2017-Oct-08 13:58N 53°29' E 009°59'0 0.0
2017-Oct-08 13:31N 53°29' E 009°59'0 0.0
2017-Oct-08 13:00N 53°29' E 009°59'0 0.0
2017-Oct-08 12:30N 53°29' E 009°59'0 0.0
2017-Oct-08 12:00N 53°29' E 009°59'0 0.0
2017-Oct-08 11:30N 53°29' E 009°59'0 0.0
2017-Oct-08 10:59N 53°29' E 009°59'0 0.0
2017-Oct-08 10:29N 53°29' E 009°59'0 0.0
2017-Oct-08 09:59N 53°29' E 009°59'0 0.0
2017-Oct-08 09:29N 53°29' E 009°59'0 0.0
2017-Oct-08 08:59N 53°29' E 009°59'0 0.0
2017-Oct-08 08:28N 53°29' E 009°59'0 0.0
2017-Oct-08 07:58N 53°29' E 009°59'0 0.0
2017-Oct-08 07:28N 53°29' E 009°59'0 0.0
2017-Oct-08 06:58N 53°29' E 009°59'0 0.0
2017-Oct-08 06:30N 53°29' E 009°59'0 0.0
2017-Oct-08 06:00N 53°29' E 009°59'0 0.0
2017-Oct-08 05:30N 53°29' E 009°59'0 0.0
2017-Oct-08 05:00N 53°29' E 009°59'0 0.0
2017-Oct-08 04:30N 53°29' E 009°59'0 0.0
2017-Oct-08 03:59N 53°29' E 009°59'0 0.0
2017-Oct-08 03:29N 53°29' E 009°59'0 0.0
2017-Oct-08 02:59N 53°29' E 009°59'0 0.0
2017-Oct-08 02:29N 53°29' E 009°59'0 0.0
2017-Oct-08 01:59N 53°29' E 009°59'0 0.0
2017-Oct-08 01:28N 53°29' E 009°59'0 0.0
2017-Oct-08 00:58N 53°29' E 009°59'0 0.0
2017-Oct-08 00:28N 53°29' E 009°59'0 0.0
2017-Oct-07 23:58N 53°29' E 009°59'0 0.0
2017-Oct-07 23:30N 53°29' E 009°59'0 0.0
2017-Oct-07 23:00N 53°29' E 009°59'0 0.0
2017-Oct-07 22:30N 53°29' E 009°59'  
Track history (hours):
 
Tides and Currents Weather Stations Pressure Air Temp Water Temp Dewpoint Dewpoint Depression Visibility Wind Speed Wind Dir Waves Ship Positions

Wladyslaw Orkan

Last reported at 2017-Oct-17 22:00 UTC. Time now 2017-Oct-17 22:30 UTC.
Position N 51°43' E 002°21'.

Length 200 m; draft 7.6 m.

Type: Ship. MMSI: 248160000.

Date/timePositionNaut miles runAvg speedWind from/ knotsBaromVisibWave heightAir tempDewpointWater temp
2017-Oct-17 22:00N 51°43' E 002°21'814.2
2017-Oct-17 21:28N 51°49' E 002°29'714.8
2017-Oct-17 21:00N 51°54' E 002°37'815.2
2017-Oct-17 20:27N 52°00' E 002°45'2015.4
2017-Oct-17 19:10N 52°16' E 003°04'415.3
2017-Oct-17 18:53N 52°20' E 003°09'714.8
2017-Oct-17 18:25N 52°25' E 003°15'614.6
2017-Oct-17 18:00N 52°30' E 003°21'913.9
2017-Oct-17 17:21N 52°37' E 003°30'513.4
2017-Oct-17 17:00N 52°41' E 003°35'712.4
2017-Oct-17 16:27N 52°46' E 003°42'1311.6
2017-Oct-17 15:19N 52°56' E 003°57'2411.1
2017-Oct-17 13:06N 53°13' E 004°26'1911.6
2017-Oct-17 11:28N 53°31' E 004°36'611.7
2017-Oct-17 10:57N 53°37' E 004°39'12610.7
2017-Oct-16 23:10N 55°27' E 006°25'212.2
2017-Oct-16 23:00N 55°28' E 006°27'612.2
2017-Oct-16 22:30N 55°34' E 006°32'712.2
2017-Oct-16 21:58N 55°39' E 006°38'12212.6
2017-Oct-16 12:20N 57°20' E 008°41'2813.1
2017-Oct-16 10:14N 57°34' E 009°25'313.0
2017-Oct-16 10:00N 57°36' E 009°30'712.7
2017-Oct-16 09:26N 57°40' E 009°42'812.4
2017-Oct-16 08:49N 57°43' E 009°54'512.3
2017-Oct-16 08:27N 57°45' E 010°02'612.5
2017-Oct-16 07:58N 57°47' E 010°13'612.2
2017-Oct-16 07:30N 57°48' E 010°23'612.2
2017-Oct-16 07:00N 57°49' E 010°35'611.8
2017-Oct-16 06:30N 57°48' E 010°45'612.2
2017-Oct-16 05:59N 57°44' E 010°54'613.2
2017-Oct-16 05:30N 57°40' E 011°03'613.0
2017-Oct-16 05:00N 57°36' E 011°12'713.2
2017-Oct-16 04:30N 57°31' E 011°22'612.3
2017-Oct-16 04:00N 57°26' E 011°28'612.7
2017-Oct-16 03:30N 57°20' E 011°32'612.7
2017-Oct-16 03:00N 57°14' E 011°36'712.9
2017-Oct-16 02:30N 57°08' E 011°39'612.7
2017-Oct-16 01:59N 57°02' E 011°44'912.9
2017-Oct-16 01:17N 56°54' E 011°49'1313.1
2017-Oct-16 00:18N 56°41' E 011°56'2713.6
2017-Oct-15 22:19N 56°16' E 012°12'414.1
2017-Oct-15 22:00N 56°13' E 012°19'715.0
2017-Oct-15 21:30N 56°09' E 012°29'713.7
2017-Oct-15 21:00N 56°04' E 012°38'5 9.6
2017-Oct-15 20:30N 55°60' E 012°41'612.6
2017-Oct-15 20:00N 55°54' E 012°46'714.4
2017-Oct-15 19:30N 55°47' E 012°42'612.5
2017-Oct-15 19:01N 55°41' E 012°41'611.9
2017-Oct-15 18:30N 55°35' E 012°42'5 9.7
2017-Oct-15 18:00N 55°30' E 012°43'611.4
2017-Oct-15 17:31N 55°24' E 012°41'510.7
2017-Oct-15 17:00N 55°19' E 012°41'612.0
2017-Oct-15 16:30N 55°16' E 012°51'611.8
2017-Oct-15 16:00N 55°15' E 013°01'612.0
2017-Oct-15 15:30N 55°15' E 013°11'712.9
2017-Oct-15 14:59N 55°14' E 013°23'1613.2
2017-Oct-15 13:49N 55°14' E 013°50'413.1
2017-Oct-15 13:30N 55°14' E 013°57'712.9
2017-Oct-15 12:59N 55°13' E 014°09'712.6
2017-Oct-15 12:27N 55°15' E 014°20'613.6
2017-Oct-15 12:00N 55°20' E 014°26'713.5
2017-Oct-15 11:30N 55°25' E 014°34'612.7
2017-Oct-15 11:00N 55°27' E 014°44'713.0
2017-Oct-15 10:30N 55°26' E 014°55'713.2
2017-Oct-15 10:00N 55°23' E 015°06'713.3
2017-Oct-15 09:30N 55°22' E 015°18'713.1
2017-Oct-15 09:00N 55°21' E 015°29'613.0
2017-Oct-15 08:30N 55°20' E 015°40'613.0
2017-Oct-15 08:01N 55°19' E 015°52'713.0
2017-Oct-15 07:31N 55°18' E 016°03'713.3
2017-Oct-15 06:59N 55°16' E 016°15'613.0
2017-Oct-15 06:31N 55°15' E 016°26'713.0
2017-Oct-15 06:00N 55°14' E 016°37'712.7
2017-Oct-15 05:28N 55°13' E 016°49'612.5
2017-Oct-15 05:00N 55°11' E 016°59'612.4
2017-Oct-15 04:30N 55°10' E 017°09'812.4
2017-Oct-15 03:49N 55°09' E 017°24'1912.2
2017-Oct-15 02:14N 55°06' E 017°57'312.1
2017-Oct-15 02:00N 55°05' E 018°02'612.2
2017-Oct-15 01:30N 55°04' E 018°13'612.2
2017-Oct-15 01:01N 55°03' E 018°23'611.4
2017-Oct-15 00:31N 55°00' E 018°32'611.7
2017-Oct-15 00:01N 54°56' E 018°40'611.9
2017-Oct-14 23:30N 54°52' E 018°47'612.2
2017-Oct-14 23:01N 54°48' E 018°55'611.4
2017-Oct-14 22:30N 54°43' E 018°60'713.5
2017-Oct-14 22:00N 54°37' E 018°55'713.7
2017-Oct-14 21:30N 54°32' E 018°48'612.6
2017-Oct-14 21:00N 54°27' E 018°41'3 5.1
2017-Oct-14 20:30N 54°25' E 018°40'1 3.0
2017-Oct-14 20:00N 54°23' E 018°40'0 0.8
2017-Oct-14 19:26N 54°23' E 018°39'0 0.0
2017-Oct-14 18:59N 54°23' E 018°39'0 0.0
2017-Oct-14 18:29N 54°23' E 018°39'0 0.0
2017-Oct-14 17:56N 54°23' E 018°39'0 0.0
2017-Oct-14 17:28N 54°23' E 018°39'0 0.0
2017-Oct-14 16:58N 54°23' E 018°39'0 0.0
2017-Oct-14 16:25N 54°23' E 018°39'0 0.0
2017-Oct-14 15:58N 54°23' E 018°39'0 0.0
2017-Oct-14 15:31N 54°23' E 018°39'0 0.0
2017-Oct-14 15:00N 54°23' E 018°39'0 0.0
2017-Oct-14 14:30N 54°23' E 018°39'0 0.0
2017-Oct-14 14:00N 54°23' E 018°39'0 0.0
2017-Oct-14 13:30N 54°23' E 018°39'0 0.0
2017-Oct-14 12:59N 54°23' E 018°39'0 0.0
2017-Oct-14 12:26N 54°23' E 018°39'0 0.0
2017-Oct-14 11:59N 54°23' E 018°39'0 0.0
2017-Oct-14 11:29N 54°23' E 018°39'0 0.0
2017-Oct-14 10:59N 54°23' E 018°39'0 0.0
2017-Oct-14 10:28N 54°23' E 018°39'0 0.0
2017-Oct-14 09:58N 54°23' E 018°39'0 0.0
2017-Oct-14 09:25N 54°23' E 018°39'0 0.0
2017-Oct-14 08:58N 54°23' E 018°39'0 0.0
2017-Oct-14 08:27N 54°23' E 018°39'0 0.0
2017-Oct-14 08:00N 54°23' E 018°39'0 0.0
2017-Oct-14 07:30N 54°23' E 018°39'0 0.0
2017-Oct-14 07:00N 54°23' E 018°39'0 0.0
2017-Oct-14 06:30N 54°23' E 018°39'0 0.0
2017-Oct-14 05:59N 54°23' E 018°39'0 0.0
2017-Oct-14 05:29N 54°23' E 018°39'0 0.0
2017-Oct-14 04:56N 54°23' E 018°39'0 0.0
2017-Oct-14 04:29N 54°23' E 018°39'0 0.0
2017-Oct-14 03:59N 54°23' E 018°39'0 0.0
2017-Oct-14 03:28N 54°23' E 018°39'0 0.0
2017-Oct-14 02:58N 54°23' E 018°39'0 0.0
2017-Oct-14 02:28N 54°23' E 018°39'0 0.0
2017-Oct-14 01:58N 54°23' E 018°39'0 0.0
2017-Oct-14 01:30N 54°23' E 018°39'0 0.0
2017-Oct-14 01:00N 54°23' E 018°39'0 0.0
2017-Oct-14 00:30N 54°23' E 018°39'0 0.0
2017-Oct-14 00:00N 54°23' E 018°39'0 0.0
2017-Oct-13 23:30N 54°23' E 018°39'0 0.0
2017-Oct-13 22:59N 54°23' E 018°39'0 0.0
2017-Oct-13 22:29N 54°23' E 018°39'0 0.0
2017-Oct-13 21:59N 54°23' E 018°39'0 0.0
2017-Oct-13 21:29N 54°23' E 018°39'0 0.0
2017-Oct-13 20:59N 54°23' E 018°39'0 0.0
2017-Oct-13 20:28N 54°23' E 018°39'0 0.0
2017-Oct-13 19:58N 54°23' E 018°39'0 0.0
2017-Oct-13 19:28N 54°23' E 018°39'0 0.0
2017-Oct-13 18:58N 54°23' E 018°39'0 0.0
2017-Oct-13 18:30N 54°23' E 018°39'0 0.0
2017-Oct-13 17:57N 54°23' E 018°39'0 0.0
2017-Oct-13 17:30N 54°23' E 018°39'0 0.0
2017-Oct-13 17:00N 54°23' E 018°39'0 0.0
2017-Oct-13 16:30N 54°23' E 018°39'0 0.0
2017-Oct-13 15:59N 54°23' E 018°39'0 0.0
2017-Oct-13 15:29N 54°23' E 018°39'0 0.0
2017-Oct-13 14:59N 54°23' E 018°39'0 0.0
2017-Oct-13 14:26N 54°23' E 018°39'0 0.0
2017-Oct-13 13:55N 54°23' E 018°39'0 0.0
2017-Oct-13 13:28N 54°23' E 018°39'0 0.0
2017-Oct-13 12:58N 54°23' E 018°39'0 0.0
2017-Oct-13 12:28N 54°23' E 018°39'0 0.0
2017-Oct-13 11:58N 54°23' E 018°39'0 0.0
2017-Oct-13 11:30N 54°23' E 018°39'0 0.0
2017-Oct-13 11:00N 54°23' E 018°39'0 0.0
2017-Oct-13 10:30N 54°23' E 018°39'0 0.0
2017-Oct-13 10:00N 54°23' E 018°39'0 0.0
2017-Oct-13 09:30N 54°23' E 018°39'0 0.0
2017-Oct-13 08:59N 54°23' E 018°39'0 0.0
2017-Oct-13 08:29N 54°23' E 018°39'0 0.0
2017-Oct-13 07:59N 54°23' E 018°39'0 0.0
2017-Oct-13 07:29N 54°23' E 018°39'0 0.0
2017-Oct-13 06:58N 54°23' E 018°39'0 0.0
2017-Oct-13 06:28N 54°23' E 018°39'0 0.0
2017-Oct-13 05:55N 54°23' E 018°39'0 0.0
2017-Oct-13 05:28N 54°23' E 018°39'0 0.0
2017-Oct-13 04:58N 54°23' E 018°39'0 0.0
2017-Oct-13 04:27N 54°23' E 018°39'0 0.0
2017-Oct-13 04:00N 54°23' E 018°39'0 0.0
2017-Oct-13 03:30N 54°23' E 018°39'0 0.0
2017-Oct-13 02:57N 54°23' E 018°39'0 0.0
2017-Oct-13 02:30N 54°23' E 018°39'0 0.0
2017-Oct-13 01:59N 54°23' E 018°39'0 0.0
2017-Oct-13 01:29N 54°23' E 018°39'0 0.0
2017-Oct-13 00:59N 54°23' E 018°39'0 0.0
2017-Oct-13 00:29N 54°23' E 018°39'0 0.0
2017-Oct-12 23:58N 54°23' E 018°39'0 0.0
2017-Oct-12 23:28N 54°23' E 018°39'0 0.0
2017-Oct-12 22:58N 54°23' E 018°39'0 0.0
2017-Oct-12 22:28N 54°23' E 018°39'1 2.5
2017-Oct-12 22:00N 54°24' E 018°41'2 4.5
2017-Oct-12 21:30N 54°26' E 018°39'3 5.1
2017-Oct-12 21:00N 54°28' E 018°42'3 5.2
2017-Oct-12 20:30N 54°30' E 018°44'4 7.2
2017-Oct-12 20:00N 54°33' E 018°48'611.1
2017-Oct-12 19:30N 54°37' E 018°54'612.3
2017-Oct-12 19:00N 54°43' E 018°58'611.9
2017-Oct-12 18:30N 54°48' E 018°54'815.3
2017-Oct-12 18:00N 54°53' E 018°43'815.5
2017-Oct-12 17:30N 54°57' E 018°32'815.6
2017-Oct-12 17:00N 54°59' E 018°19'815.5
2017-Oct-12 16:30N 55°01' E 018°06'8815.0
2017-Oct-12 10:36N 55°15' E 015°33'214.6
2017-Oct-12 10:28N 55°15' E 015°29'714.6
2017-Oct-12 10:00N 55°16' E 015°18'714.9
2017-Oct-12 09:30N 55°18' E 015°05'714.9
2017-Oct-12 09:00N 55°21' E 014°53'714.4
2017-Oct-12 08:30N 55°24' E 014°42'714.4
2017-Oct-12 08:00N 55°19' E 014°33'714.7
2017-Oct-12 07:30N 55°13' E 014°25'713.7
2017-Oct-12 07:00N 55°10' E 014°14'1014.5
2017-Oct-12 06:21N 55°10' E 013°57'614.3
2017-Oct-12 05:57N 55°10' E 013°47'614.4
2017-Oct-12 05:30N 55°11' E 013°36'914.2
2017-Oct-12 04:51N 55°13' E 013°20'514.2
2017-Oct-12 04:30N 55°13' E 013°11'714.1
2017-Oct-12 04:00N 55°14' E 012°59'714.0
2017-Oct-12 03:30N 55°16' E 012°47'612.5
2017-Oct-12 03:00N 55°18' E 012°37'612.6
2017-Oct-12 02:30N 55°25' E 012°39'612.9
2017-Oct-12 02:00N 55°31' E 012°42'611.1
2017-Oct-12 01:30N 55°36' E 012°42'611.2
2017-Oct-12 01:00N 55°42' E 012°41'612.4
2017-Oct-12 00:30N 55°48' E 012°42'713.2
2017-Oct-12 00:00N 55°54' E 012°39'613.0
2017-Oct-11 23:30N 56°01' E 012°38'611.4
2017-Oct-11 23:00N 56°06' E 012°33'713.7
2017-Oct-11 22:30N 56°10' E 012°23'713.7
2017-Oct-11 22:00N 56°14' E 012°13'4612.8
2017-Oct-11 18:27N 56°57' E 011°44'713.3
2017-Oct-11 17:57N 57°03' E 011°40'613.2
2017-Oct-11 17:28N 57°09' E 011°36'613.0
2017-Oct-11 17:00N 57°15' E 011°32'20311.3
2017-Oct-10 22:59N 55°17' E 006°34'1413.5
2017-Oct-10 21:56N 55°03' E 006°34'612.6
2017-Oct-10 21:28N 54°58' E 006°38'612.6
2017-Oct-10 21:00N 54°53' E 006°44'612.7
2017-Oct-10 20:30N 54°48' E 006°50'5412.9
2017-Oct-10 16:20N 54°07' E 007°50'512.7
2017-Oct-10 15:58N 54°05' E 007°57'613.0
2017-Oct-10 15:30N 54°01' E 008°05'611.9
2017-Oct-10 15:00N 54°00' E 008°15'1211.7
2017-Oct-10 14:00N 53°58' E 008°35'510.8
2017-Oct-10 13:30N 53°54' E 008°41'510.3
2017-Oct-10 13:00N 53°51' E 008°48'510.2
2017-Oct-10 12:30N 53°51' E 008°56'611.5
2017-Oct-10 12:00N 53°53' E 009°05'4 8.5
2017-Oct-10 11:30N 53°53' E 009°13'713.5
2017-Oct-10 11:00N 53°49' E 009°22'714.8
2017-Oct-10 10:30N 53°43' E 009°29'713.6
2017-Oct-10 10:00N 53°37' E 009°34'612.8
2017-Oct-10 09:30N 53°34' E 009°43'611.8
2017-Oct-10 09:00N 53°33' E 009°53'4 7.3
2017-Oct-10 08:30N 53°32' E 009°59'0 0.4
2017-Oct-10 07:58N 53°32' E 009°59'0 0.0
2017-Oct-10 07:30N 53°32' E 009°59'0 0.0
2017-Oct-10 07:00N 53°32' E 009°59'0 0.0
2017-Oct-10 06:30N 53°32' E 009°59'0 0.0
2017-Oct-10 06:00N 53°32' E 009°59'0 0.0
2017-Oct-10 05:27N 53°32' E 009°59'0 0.0
2017-Oct-10 04:59N 53°32' E 009°59'0 0.0
2017-Oct-10 04:29N 53°32' E 009°59'0 0.0
2017-Oct-10 03:59N 53°32' E 009°59'0 0.0
2017-Oct-10 03:29N 53°32' E 009°59'0 0.0
2017-Oct-10 02:58N 53°32' E 009°59'0 0.0
2017-Oct-10 02:28N 53°32' E 009°59'0 0.0
2017-Oct-10 01:58N 53°32' E 009°59'0 0.0
2017-Oct-10 01:28N 53°32' E 009°59'0 0.0
2017-Oct-10 00:58N 53°32' E 009°59'0 0.0
2017-Oct-10 00:30N 53°32' E 009°59'0 0.0
2017-Oct-10 00:00N 53°32' E 009°59'0 0.0
2017-Oct-09 23:30N 53°32' E 009°59'0 0.0
2017-Oct-09 23:00N 53°32' E 009°59'0 0.0
2017-Oct-09 22:30N 53°32' E 009°59'0 0.0
2017-Oct-09 21:59N 53°32' E 009°59'0 0.0
2017-Oct-09 21:29N 53°32' E 009°59'0 0.0
2017-Oct-09 20:59N 53°32' E 009°59'0 0.0
2017-Oct-09 20:29N 53°32' E 009°59'0 0.0
2017-Oct-09 19:59N 53°32' E 009°59'0 0.0
2017-Oct-09 19:28N 53°32' E 009°59'0 0.0
2017-Oct-09 18:58N 53°32' E 009°59'0 0.0
2017-Oct-09 18:28N 53°32' E 009°59'0 0.0
2017-Oct-09 17:58N 53°32' E 009°59'0 0.0
2017-Oct-09 17:30N 53°32' E 009°59'0 0.0
2017-Oct-09 17:00N 53°32' E 009°59'0 0.0
2017-Oct-09 16:30N 53°32' E 009°59'0 0.0
2017-Oct-09 16:00N 53°32' E 009°59'0 0.0
2017-Oct-09 15:30N 53°32' E 009°59'0 0.0
2017-Oct-09 14:59N 53°32' E 009°59'0 0.0
2017-Oct-09 14:29N 53°32' E 009°59'0 0.0
2017-Oct-09 13:59N 53°32' E 009°59'0 0.0
2017-Oct-09 13:29N 53°32' E 009°59'0 0.0
2017-Oct-09 12:58N 53°32' E 009°59'0 0.0
2017-Oct-09 12:28N 53°32' E 009°59'0 0.0
2017-Oct-09 11:58N 53°32' E 009°59'0 0.0
2017-Oct-09 11:28N 53°32' E 009°59'0 0.0
2017-Oct-09 10:58N 53°32' E 009°59'0 0.0
2017-Oct-09 10:30N 53°32' E 009°59'0 0.0
2017-Oct-09 10:00N 53°32' E 009°59'0 0.0
2017-Oct-09 09:30N 53°32' E 009°59'0 0.0
2017-Oct-09 09:00N 53°32' E 009°59'0 0.0
2017-Oct-09 08:29N 53°32' E 009°59'0 0.0
2017-Oct-09 07:59N 53°32' E 009°59'0 0.0
2017-Oct-09 07:29N 53°32' E 009°59'0 0.0
2017-Oct-09 06:59N 53°32' E 009°59'0 0.0
2017-Oct-09 06:29N 53°32' E 009°59'0 0.0
2017-Oct-09 05:58N 53°32' E 009°59'0 0.0
2017-Oct-09 05:28N 53°32' E 009°59'0 0.0
2017-Oct-09 04:58N 53°32' E 009°59'0 0.0
2017-Oct-09 04:28N 53°32' E 009°59'0 0.0
2017-Oct-09 04:00N 53°32' E 009°59'0 0.0
2017-Oct-09 03:30N 53°32' E 009°59'0 0.0
2017-Oct-09 03:00N 53°32' E 009°59'0 0.0
2017-Oct-09 02:30N 53°32' E 009°59'0 0.0
2017-Oct-09 02:00N 53°32' E 009°59'0 0.0
2017-Oct-09 01:29N 53°32' E 009°59'0 0.0
2017-Oct-09 00:59N 53°32' E 009°59'0 0.0
2017-Oct-09 00:29N 53°32' E 009°59'0 0.0
2017-Oct-08 23:59N 53°32' E 009°59'0 0.0
2017-Oct-08 23:29N 53°32' E 009°59'0 0.0
2017-Oct-08 22:58N 53°32' E 009°59'0 0.0
2017-Oct-08 22:28N 53°32' E 009°59'0 0.0
2017-Oct-08 21:58N 53°32' E 009°59'0 0.0
2017-Oct-08 21:28N 53°32' E 009°59'0 0.0
2017-Oct-08 20:57N 53°32' E 009°59'0 0.0
2017-Oct-08 20:30N 53°32' E 009°59'0 0.0
2017-Oct-08 20:00N 53°32' E 009°59'0 0.0
2017-Oct-08 19:30N 53°32' E 009°59'2 3.1
2017-Oct-08 19:00N 53°33' E 009°57'2 3.8
2017-Oct-08 18:31N 53°31' E 009°57'2 3.3
2017-Oct-08 17:59N 53°29' E 009°59'0 0.0
2017-Oct-08 17:29N 53°29' E 009°59'0 0.0
2017-Oct-08 16:59N 53°29' E 009°59'0 0.0
2017-Oct-08 16:29N 53°29' E 009°59'1 1.3
2017-Oct-08 15:58N 53°30' E 009°59'1 1.4
2017-Oct-08 15:28N 53°29' E 009°59'0 0.0
2017-Oct-08 14:58N 53°29' E 009°59'0 0.0
2017-Oct-08 14:28N 53°29' E 009°59'0 0.0
2017-Oct-08 13:58N 53°29' E 009°59'0 0.0
2017-Oct-08 13:31N 53°29' E 009°59'0 0.0
2017-Oct-08 13:00N 53°29' E 009°59'0 0.0
2017-Oct-08 12:30N 53°29' E 009°59'0 0.0
2017-Oct-08 12:00N 53°29' E 009°59'0 0.0
2017-Oct-08 11:30N 53°29' E 009°59'0 0.0
2017-Oct-08 10:59N 53°29' E 009°59'0 0.0
2017-Oct-08 10:29N 53°29' E 009°59'0 0.0
2017-Oct-08 09:59N 53°29' E 009°59'0 0.0
2017-Oct-08 09:29N 53°29' E 009°59'0 0.0
2017-Oct-08 08:59N 53°29' E 009°59'0 0.0
2017-Oct-08 08:28N 53°29' E 009°59'0 0.0
2017-Oct-08 07:58N 53°29' E 009°59'0 0.0
2017-Oct-08 07:28N 53°29' E 009°59'0 0.0
2017-Oct-08 06:58N 53°29' E 009°59'0 0.0
2017-Oct-08 06:30N 53°29' E 009°59'0 0.0
2017-Oct-08 06:00N 53°29' E 009°59'0 0.0
2017-Oct-08 05:30N 53°29' E 009°59'0 0.0
2017-Oct-08 05:00N 53°29' E 009°59'0 0.0
2017-Oct-08 04:30N 53°29' E 009°59'0 0.0
2017-Oct-08 03:59N 53°29' E 009°59'0 0.0
2017-Oct-08 03:29N 53°29' E 009°59'0 0.0
2017-Oct-08 02:59N 53°29' E 009°59'0 0.0
2017-Oct-08 02:29N 53°29' E 009°59'0 0.0
2017-Oct-08 01:59N 53°29' E 009°59'0 0.0
2017-Oct-08 01:28N 53°29' E 009°59'0 0.0
2017-Oct-08 00:58N 53°29' E 009°59'0 0.0
2017-Oct-08 00:28N 53°29' E 009°59'0 0.0
2017-Oct-07 23:58N 53°29' E 009°59'0 0.0
2017-Oct-07 23:30N 53°29' E 009°59'0 0.0
2017-Oct-07 23:00N 53°29' E 009°59'0 0.0
2017-Oct-07 22:30N 53°29' E 009°59'  

Dump ship's entire track history